Time;durP1;ratioP1;P1;durP2;ratioP2;P2;SDS_P1;SDS_P2;PMS_P1;PMS_P2;Temp;Humidity;BMP_temperature;BMP_pressure;BME280_temperature;BME280_humidity;BME280_pressure;Samples;Min_cycle;Max_cycle;Signal;HPM_P1;HPM_P2
2022/01/30 00:01:36;;;;;;;6.97;4.60;;;;;;;2.41;86.13;97615.53;5110285;28;20115;-74
2022/01/30 00:04:01;;;;;;;7.03;4.60;;;;;;;2.43;86.57;97603.38;5110220;28;20032;-73
2022/01/30 00:06:27;;;;;;;9.13;5.13;;;;;;;2.44;86.06;97610.44;5110544;28;20483;-74
2022/01/30 00:08:52;;;;;;;7.85;4.88;;;;;;;2.46;86.49;97610.16;5110211;28;20420;-78
2022/01/30 00:11:24;;;;;;;8.38;4.47;;;;;;;2.51;86.13;97612.88;5109877;28;20032;-76
2022/01/30 00:13:50;;;;;;;7.20;4.60;;;;;;;2.52;85.73;97609.09;5110387;28;20054;-74
2022/01/30 00:16:18;;;;;;;7.78;4.45;;;;;;;2.50;85.55;97597.72;5110560;28;20028;-73
2022/01/30 00:24:00;;;;;;;6.95;4.05;;;;;;;2.55;85.70;97615.88;5114389;28;20476;-74
2022/01/30 00:26:29;;;;;;;8.95;4.53;;;;;;;2.58;86.13;97613.47;5113668;28;20483;-75
2022/01/30 00:28:55;;;;;;;7.07;4.25;;;;;;;2.61;86.44;97615.63;5094933;28;20034;-74
2022/01/30 00:31:22;;;;;;;6.22;4.35;;;;;;;2.71;85.94;97595.06;5113124;28;20019;-75
2022/01/30 00:33:47;;;;;;;9.00;4.70;;;;;;;2.75;85.46;97588.88;5094669;28;20045;-74
2022/01/30 00:36:13;;;;;;;8.25;4.88;;;;;;;2.81;85.42;97579.69;5110045;28;20035;-73
2022/01/30 00:38:39;;;;;;;8.88;4.88;;;;;;;2.83;85.29;97592.94;5108797;28;20031;-74
2022/01/30 00:41:04;;;;;;;7.28;4.82;;;;;;;2.83;85.13;97582.94;5105055;28;20049;-73
2022/01/30 00:43:30;;;;;;;7.68;4.28;;;;;;;2.88;85.33;97589.44;5105797;28;20052;-73
2022/01/30 00:45:55;;;;;;;5.35;4.10;;;;;;;2.91;84.84;97580.75;5106869;28;20024;-74
2022/01/30 00:48:21;;;;;;;7.88;4.18;;;;;;;2.93;85.10;97579.44;5087838;28;20034;-73
2022/01/30 00:50:46;;;;;;;5.38;3.30;;;;;;;3.01;84.79;97615.22;5105215;28;20050;-74
2022/01/30 00:53:12;;;;;;;5.75;4.00;;;;;;;3.06;84.27;97598.94;5106422;28;20015;-75
2022/01/30 00:55:38;;;;;;;7.57;4.30;;;;;;;3.06;84.53;97604.34;5106549;27;20356;-74
2022/01/30 00:58:04;;;;;;;7.28;4.07;;;;;;;3.08;84.93;97616.56;5105157;28;20019;-74
2022/01/30 01:00:31;;;;;;;7.88;4.00;;;;;;;3.10;85.19;97586.50;5104431;28;20133;-73
2022/01/30 01:02:57;;;;;;;6.60;3.33;;;;;;;3.18;84.79;97601.41;5105998;28;20016;-73
2022/01/30 01:05:23;;;;;;;5.47;3.05;;;;;;;3.23;84.67;97607.66;5106722;28;20077;-73
2022/01/30 01:07:50;;;;;;;6.32;3.03;;;;;;;3.28;83.95;97621.22;5106312;28;20028;-74
2022/01/30 01:10:37;;;;;;;4.50;2.70;;;;;;;3.35;82.78;97623.66;5086362;28;20038;-74
2022/01/30 01:23:54;;;;;;;2.00;1.42;;;;;;;3.80;76.56;97612.25;5106289;28;20032;-73
2022/01/30 01:26:22;;;;;;;4.07;1.35;;;;;;;3.98;74.35;97635.28;5105801;28;20016;-74
2022/01/30 01:28:47;;;;;;;4.28;1.23;;;;;;;4.07;73.24;97622.81;5086675;28;20482;-74
2022/01/30 01:31:13;;;;;;;3.17;1.23;;;;;;;4.18;72.68;97623.59;5103028;28;20084;-74
2022/01/30 01:33:58;;;;;;;3.90;1.10;;;;;;;4.20;71.77;97616.00;5105352;28;20034;-73
2022/01/30 01:36:24;;;;;;;4.65;1.30;;;;;;;4.20;71.96;97617.91;5105622;28;20117;-74
2022/01/30 01:38:50;;;;;;;4.30;1.90;;;;;;;4.17;70.87;97608.41;5105583;28;20114;-73
2022/01/30 01:41:19;;;;;;;4.07;1.10;;;;;;;4.19;70.84;97617.06;5104693;28;20086;-74
2022/01/30 01:43:44;;;;;;;2.80;1.07;;;;;;;4.15;69.90;97618.72;5086261;28;20939;-73
2022/01/30 01:46:17;;;;;;;9.43;1.90;;;;;;;4.13;69.92;97621.72;5105081;28;20023;-74
2022/01/30 01:48:45;;;;;;;5.32;1.65;;;;;;;4.07;71.03;97609.25;5105320;28;20089;-74
2022/01/30 01:51:17;;;;;;;6.43;1.45;;;;;;;4.00;70.58;97612.25;5103993;28;20027;-73
2022/01/30 01:53:44;;;;;;;3.28;1.20;;;;;;;3.97;70.43;97620.94;5087187;28;20024;-74
2022/01/30 01:56:09;;;;;;;4.13;1.48;;;;;;;3.93;69.13;97622.56;5105615;27;20038;-73
2022/01/30 01:58:35;;;;;;;4.60;1.20;;;;;;;3.90;69.02;97614.13;5104283;28;20461;-73
2022/01/30 02:01:02;;;;;;;3.42;1.40;;;;;;;3.90;69.07;97619.56;5104064;28;20035;-73
2022/01/30 02:03:28;;;;;;;5.57;1.63;;;;;;;3.81;68.80;97600.31;5105317;28;20383;-74
2022/01/30 02:05:58;;;;;;;4.55;1.20;;;;;;;3.87;68.88;97600.03;5103388;28;20023;-73
2022/01/30 02:24:25;;;;;;;5.85;1.33;;;;;;;3.87;61.64;97578.34;5104739;28;20047;-73
2022/01/30 02:26:50;;;;;;;5.72;1.10;;;;;;;4.00;62.87;97581.56;5105122;28;20042;-73
2022/01/30 02:29:18;;;;;;;9.80;1.80;;;;;;;3.99;62.60;97571.81;5104218;28;20035;-73
2022/01/30 02:31:43;;;;;;;3.00;1.02;;;;;;;3.93;63.21;97575.63;5103743;27;20036;-74
2022/01/30 02:34:09;;;;;;;6.05;1.17;;;;;;;3.93;61.81;97572.91;5103392;28;20560;-73
2022/01/30 02:36:50;;;;;;;3.25;1.70;;;;;;;3.92;61.48;97582.97;5085938;28;20031;-74
2022/01/30 02:39:17;;;;;;;3.78;1.10;;;;;;;3.92;63.09;97571.28;5105170;28;20086;-74
2022/01/30 02:41:43;;;;;;;5.80;1.23;;;;;;;3.87;59.94;97572.91;5084239;28;20077;-73
2022/01/30 02:46:39;;;;;;;6.38;1.90;;;;;;;3.95;59.14;97571.56;5103833;28;20399;-74
2022/01/30 02:51:50;;;;;;;6.30;1.58;;;;;;;3.90;60.69;97563.44;5103452;28;20040;-74
2022/01/30 02:54:15;;;;;;;;;;;;;;;3.88;59.75;97560.97;5105235;28;20027;-74
2022/01/30 02:56:41;;;;;;;3.13;0.75;;;;;;;3.86;59.40;97552.31;5103763;28;19926;-73
2022/01/30 02:59:08;;;;;;;4.28;1.13;;;;;;;3.86;59.50;97537.94;5103961;28;20027;-74
2022/01/30 03:01:33;;;;;;;6.85;1.40;;;;;;;3.93;58.93;97541.19;5102373;28;20519;-73
2022/01/30 03:03:59;;;;;;;3.03;1.20;;;;;;;3.96;60.18;97540.63;5103992;28;20100;-73
2022/01/30 03:06:25;;;;;;;6.57;1.30;;;;;;;3.92;59.86;97541.44;5102188;28;20084;-73
2022/01/30 03:08:51;;;;;;;9.27;1.55;;;;;;;3.92;60.05;97560.44;5103829;28;20028;-73
2022/01/30 03:11:16;;;;;;;4.80;1.30;;;;;;;3.92;60.22;97550.41;5102965;28;20398;-74
2022/01/30 03:13:42;;;;;;;5.05;1.17;;;;;;;3.90;61.68;97543.59;5104012;28;20028;-73
2022/01/30 03:16:07;;;;;;;4.38;1.10;;;;;;;3.80;60.44;97550.72;5103530;28;20063;-74
2022/01/30 03:18:32;;;;;;;12.02;1.80;;;;;;;3.79;60.90;97549.09;5085175;28;20751;-73
2022/01/30 03:20:59;;;;;;;6.25;1.00;;;;;;;3.78;61.72;97542.03;5103089;28;20479;-74
2022/01/30 03:23:25;;;;;;;3.92;1.15;;;;;;;3.81;61.09;97546.06;5103236;28;20028;-74
2022/01/30 03:25:56;;;;;;;4.97;1.05;;;;;;;3.80;61.90;97537.16;5104214;28;20034;-73
2022/01/30 03:28:22;;;;;;;5.72;1.00;;;;;;;3.80;62.29;97536.31;5104431;28;20023;-73
2022/01/30 03:30:48;;;;;;;4.55;1.13;;;;;;;3.77;62.36;97524.13;5102424;28;20406;-74
2022/01/30 03:33:14;;;;;;;6.82;1.17;;;;;;;3.77;62.75;97537.69;5103211;28;20032;-74
2022/01/30 03:35:40;;;;;;;5.53;1.08;;;;;;;3.70;62.82;97539.88;5103839;28;20380;-74
2022/01/30 03:38:06;;;;;;;4.38;1.00;;;;;;;3.70;64.23;97534.44;5084548;28;20031;-74
2022/01/30 03:40:31;;;;;;;4.30;0.98;;;;;;;3.69;64.02;97536.31;5102988;28;20038;-74
2022/01/30 03:42:57;;;;;;;6.35;1.30;;;;;;;3.72;64.49;97549.34;5103248;28;20470;-73
2022/01/30 03:45:22;;;;;;;2.80;1.05;;;;;;;3.75;65.05;97541.75;5085807;28;20054;-74
2022/01/30 03:47:48;;;;;;;7.78;1.60;;;;;;;3.71;64.68;97546.91;5104690;28;20032;-73
2022/01/30 03:50:13;;;;;;;5.35;1.67;;;;;;;3.66;64.86;97533.38;5103346;28;20032;-74
2022/01/30 03:52:39;;;;;;;3.72;1.58;;;;;;;3.64;64.90;97532.81;5103166;28;20067;-73
2022/01/30 03:55:05;;;;;;;3.63;1.20;;;;;;;3.65;65.44;97538.00;5105742;27;20024;-74
2022/01/30 03:57:30;;;;;;;3.47;1.15;;;;;;;3.69;65.12;97546.38;5089221;28;20030;-73
2022/01/30 03:59:56;;;;;;;4.63;1.13;;;;;;;3.69;65.97;97551.81;5087859;28;20035;-74
2022/01/30 04:02:21;;;;;;;3.80;1.30;;;;;;;3.68;65.57;97555.59;5089690;28;20032;-73
2022/01/30 04:04:47;;;;;;;12.52;3.72;;;;;;;3.69;65.79;97578.91;5107424;28;20031;-74
2022/01/30 04:07:13;;;;;;;12.88;4.88;;;;;;;3.72;65.59;97590.03;5107320;28;20024;-73
2022/01/30 04:09:38;;;;;;;12.82;4.82;;;;;;;3.77;66.12;97585.69;5087830;28;20038;-71
2022/01/30 04:12:04;;;;;;;6.63;2.47;;;;;;;3.76;65.92;97589.47;5106734;28;20832;-72
2022/01/30 04:14:30;;;;;;;7.18;2.08;;;;;;;3.71;66.54;97565.91;5107266;28;20098;-72
2022/01/30 04:16:57;;;;;;;13.68;3.70;;;;;;;3.70;64.82;97559.66;5107173;28;20107;-72
2022/01/30 04:19:22;;;;;;;4.93;1.48;;;;;;;3.75;63.68;97556.13;5107247;28;20501;-72
2022/01/30 04:21:48;;;;;;;13.57;4.45;;;;;;;3.73;65.04;97561.03;5088043;28;20147;-72
2022/01/30 04:24:13;;;;;;;11.07;3.67;;;;;;;3.78;62.31;97549.34;5107200;28;20864;-72
2022/01/30 04:26:39;;;;;;;8.80;2.17;;;;;;;3.85;60.40;97548.00;5106745;28;20906;-72
2022/01/30 04:29:05;;;;;;;8.35;1.70;;;;;;;3.93;59.36;97560.16;5106445;28;20388;-72
2022/01/30 04:31:30;;;;;;;5.82;1.25;;;;;;;4.00;57.98;97546.31;5106078;28;20057;-72
2022/01/30 04:33:56;;;;;;;9.02;2.05;;;;;;;4.07;56.52;97579.38;5107025;28;20031;-73
2022/01/30 04:36:28;;;;;;;8.88;1.45;;;;;;;4.13;55.21;97543.00;5107384;28;20034;-73
2022/01/30 04:38:59;;;;;;;3.63;1.20;;;;;;;4.13;55.77;97558.47;5107154;28;20027;-73
2022/01/30 05:08:03;;;;;;;5.18;1.40;;;;;;;4.15;56.09;97508.28;5105005;28;20110;-72
2022/01/30 05:10:28;;;;;;;9.52;2.78;;;;;;;4.09;56.42;97514.81;5104585;28;20023;-74
2022/01/30 05:12:57;;;;;;;5.80;2.33;;;;;;;4.08;56.98;97521.31;5085636;28;20027;-72
2022/01/30 05:15:23;;;;;;;5.03;1.73;;;;;;;4.02;57.61;97509.69;5106337;28;20032;-75
2022/01/30 05:17:48;;;;;;;5.80;1.70;;;;;;;3.98;57.99;97508.59;5101278;28;20054;-75
2022/01/30 05:20:15;;;;;;;5.20;1.30;;;;;;;3.98;57.66;97502.34;5104048;28;20023;-75
2022/01/30 05:22:41;;;;;;;5.30;1.10;;;;;;;3.95;56.22;97503.72;5105286;28;20040;-74
2022/01/30 05:25:08;;;;;;;5.63;0.88;;;;;;;3.96;56.63;97496.38;5104549;28;20023;-74
2022/01/30 05:27:33;;;;;;;4.50;0.88;;;;;;;3.98;56.73;97494.22;5104850;28;20366;-75
2022/01/30 05:29:59;;;;;;;7.32;1.40;;;;;;;3.97;57.00;97493.41;5103625;28;20020;-74
2022/01/30 05:32:25;;;;;;;10.30;1.98;;;;;;;3.99;57.96;97493.13;5086431;28;20076;-74
2022/01/30 05:34:51;;;;;;;3.75;0.80;;;;;;;3.99;56.79;97499.38;5105285;28;20522;-75
2022/01/30 05:37:19;;;;;;;11.02;2.70;;;;;;;4.01;57.25;97497.22;5104896;28;20371;-75
2022/01/30 05:39:45;;;;;;;4.60;1.55;;;;;;;4.08;56.11;97493.34;5104282;28;20055;-75
2022/01/30 05:42:11;;;;;;;5.72;1.73;;;;;;;4.08;55.96;97515.06;5104400;28;20031;-75
2022/01/30 05:44:56;;;;;;;2.28;0.70;;;;;;;4.08;55.84;97491.47;5085271;28;20051;-74
2022/01/30 05:47:38;;;;;;;3.95;0.90;;;;;;;4.07;56.86;97487.13;5104914;28;20031;-75
2022/01/30 05:50:04;;;;;;;3.80;1.02;;;;;;;4.07;55.91;97479.00;5103470;28;20721;-75
2022/01/30 05:52:29;;;;;;;3.97;0.90;;;;;;;4.07;55.74;97487.13;5104335;28;20053;-75
2022/01/30 05:54:55;;;;;;;3.50;0.93;;;;;;;4.04;57.32;97470.59;5102004;28;20510;-75
2022/01/30 05:57:20;;;;;;;4.28;1.00;;;;;;;4.01;56.64;97480.09;5104377;28;20027;-75
2022/01/30 05:59:46;;;;;;;2.97;0.82;;;;;;;3.97;55.89;97452.72;5103815;28;20027;-77
2022/01/30 06:02:11;;;;;;;3.42;1.23;;;;;;;3.98;56.94;97443.50;5085493;28;20031;-75
2022/01/30 06:04:37;;;;;;;4.85;1.92;;;;;;;3.96;56.46;97432.09;5103793;28;20020;-76
2022/01/30 06:07:02;;;;;;;2.97;1.33;;;;;;;3.90;57.06;97443.25;5103930;28;20495;-75
2022/01/30 06:09:29;;;;;;;6.00;3.35;;;;;;;3.86;56.27;97424.84;5102986;28;20136;-75
2022/01/30 06:11:54;;;;;;;7.15;2.70;;;;;;;3.85;56.69;97439.47;5104683;28;20035;-76
2022/01/30 06:14:21;;;;;;;4.88;0.95;;;;;;;3.83;57.32;97432.69;5104246;28;20462;-73
2022/01/30 06:16:49;;;;;;;3.30;1.60;;;;;;;3.77;57.69;97425.66;5103919;28;20084;-75
2022/01/30 06:19:14;;;;;;;3.90;1.48;;;;;;;3.73;57.09;97428.13;5104254;28;20118;-76
2022/01/30 06:21:40;;;;;;;6.72;1.23;;;;;;;3.67;57.56;97426.53;5102723;28;20122;-74
2022/01/30 06:24:05;;;;;;;3.95;0.90;;;;;;;3.60;56.40;97428.72;5103489;28;20434;-75
2022/01/30 06:26:31;;;;;;;4.60;1.15;;;;;;;3.61;57.86;97430.34;5103447;28;20023;-75
2022/01/30 06:28:56;;;;;;;3.50;0.85;;;;;;;3.52;57.57;97428.19;5104204;28;20751;-76
2022/01/30 06:31:22;;;;;;;3.47;0.85;;;;;;;3.53;57.54;97435.22;5103093;28;20042;-75
2022/01/30 06:33:48;;;;;;;2.92;0.90;;;;;;;3.53;57.58;97432.53;5104217;28;20063;-75
2022/01/30 06:36:13;;;;;;;2.15;0.68;;;;;;;3.55;57.54;97434.97;5084491;28;20059;-75
2022/01/30 06:38:39;;;;;;;2.83;0.70;;;;;;;3.53;57.24;97410.03;5103376;28;21351;-74
2022/01/30 06:41:04;;;;;;;4.10;1.23;;;;;;;3.54;57.46;97425.22;5102618;28;20039;-75
2022/01/30 06:43:30;;;;;;;2.80;0.75;;;;;;;3.52;56.80;97405.69;5103818;28;20550;-77
2022/01/30 06:45:56;;;;;;;5.00;1.70;;;;;;;3.54;57.94;97419.78;5081793;28;20024;-76
2022/01/30 06:48:22;;;;;;;4.05;1.30;;;;;;;3.48;57.93;97415.47;5103064;28;20024;-75
2022/01/30 06:50:48;;;;;;;4.25;1.40;;;;;;;3.51;57.75;97417.63;5103258;28;20073;-75
2022/01/30 06:53:13;;;;;;;8.88;3.58;;;;;;;3.49;58.20;97423.31;5103996;28;20094;-76
2022/01/30 06:55:42;;;;;;;4.88;1.30;;;;;;;3.53;57.73;97416.25;5104126;28;20529;-77
2022/01/30 06:58:08;;;;;;;4.05;1.40;;;;;;;3.50;57.53;97410.59;5103203;28;20032;-76
2022/01/30 07:00:35;;;;;;;9.32;3.30;;;;;;;3.50;58.15;97416.81;5083415;28;20024;-76
2022/01/30 07:03:00;;;;;;;8.57;1.77;;;;;;;3.51;57.87;97394.03;5103389;28;20032;-75
2022/01/30 07:05:26;;;;;;;7.25;1.50;;;;;;;3.55;58.13;97403.22;5103582;28;20679;-74
2022/01/30 07:07:52;;;;;;;5.55;2.08;;;;;;;3.56;58.30;97437.41;5102947;28;20016;-75
2022/01/30 07:10:18;;;;;;;4.38;1.33;;;;;;;3.63;58.17;97393.75;5102446;28;20523;-76
2022/01/30 07:12:43;;;;;;;4.03;1.52;;;;;;;3.64;58.05;97399.97;5103610;28;20031;-76
2022/01/30 07:15:09;;;;;;;4.45;1.45;;;;;;;3.61;58.56;97395.09;5102827;28;20032;-76
2022/01/30 07:17:35;;;;;;;4.65;1.13;;;;;;;3.60;57.87;97407.03;5104254;28;20101;-74
2022/01/30 07:20:00;;;;;;;4.97;1.42;;;;;;;3.61;58.03;97411.34;5081556;28;20038;-73
2022/01/30 07:22:27;;;;;;;3.35;1.13;;;;;;;3.64;58.33;97402.66;5103297;28;20570;-74
2022/01/30 07:24:53;;;;;;;4.60;1.40;;;;;;;3.65;58.19;97434.13;5103524;28;20409;-74
2022/01/30 07:27:19;;;;;;;3.03;1.30;;;;;;;3.60;58.31;97426.81;5102823;28;20041;-74
2022/01/30 07:29:44;;;;;;;7.40;1.60;;;;;;;3.60;58.29;97434.97;5101216;28;20043;-74
2022/01/30 07:32:10;;;;;;;5.18;1.40;;;;;;;3.61;58.32;97441.19;5102681;28;20550;-75
2022/01/30 07:34:36;;;;;;;4.70;1.55;;;;;;;3.61;58.65;97463.69;5102706;28;20055;-74
2022/01/30 07:37:02;;;;;;;6.38;1.98;;;;;;;3.58;57.67;97446.06;5083520;28;20024;-75
2022/01/30 07:39:30;;;;;;;5.25;1.30;;;;;;;3.63;57.45;97422.75;5083824;28;20443;-73
2022/01/30 07:41:55;;;;;;;4.75;1.52;;;;;;;3.62;58.36;97453.66;5081281;28;20024;-75
2022/01/30 07:44:21;;;;;;;4.05;0.98;;;;;;;3.65;58.45;97443.09;5103130;28;20047;-75
2022/01/30 07:46:47;;;;;;;3.55;1.38;;;;;;;3.67;57.17;97432.75;5102615;28;20076;-74
2022/01/30 07:49:13;;;;;;;8.10;1.77;;;;;;;3.70;57.22;97413.22;5102155;28;20149;-74
2022/01/30 07:51:38;;;;;;;4.85;1.55;;;;;;;3.74;57.11;97418.91;5082862;28;20868;-74
2022/01/30 07:54:03;;;;;;;3.67;0.85;;;;;;;3.78;56.81;97409.13;5102670;28;20526;-74
2022/01/30 07:56:29;;;;;;;3.75;1.55;;;;;;;3.76;56.51;97426.75;5102157;28;20251;-74
2022/01/30 07:58:54;;;;;;;3.05;1.05;;;;;;;3.86;56.94;97407.72;5101226;28;20028;-75
2022/01/30 08:01:20;;;;;;;2.88;0.98;;;;;;;3.83;56.23;97400.97;5101803;28;20067;-74
2022/01/30 08:03:45;;;;;;;7.22;1.63;;;;;;;3.87;57.50;97393.88;5083090;28;20115;-74
2022/01/30 08:06:11;;;;;;;4.47;2.47;;;;;;;3.86;56.57;97396.88;5101834;28;20042;-74
2022/01/30 08:08:36;;;;;;;3.60;1.20;;;;;;;3.85;56.48;97397.97;5102182;28;20035;-74
2022/01/30 08:11:02;;;;;;;5.63;1.50;;;;;;;3.85;56.71;97406.09;5082503;28;20032;-74
2022/01/30 08:13:27;;;;;;;3.08;1.25;;;;;;;3.82;57.11;97407.50;5102406;28;20028;-74
2022/01/30 08:15:53;;;;;;;2.67;0.90;;;;;;;3.81;57.36;97429.44;5102519;28;20055;-74
2022/01/30 08:18:18;;;;;;;9.95;2.30;;;;;;;3.82;58.27;97444.63;5103596;28;20039;-74
2022/01/30 08:20:44;;;;;;;13.57;4.50;;;;;;;3.84;57.56;97428.91;5101148;28;20462;-73
2022/01/30 08:23:14;;;;;;;9.68;2.42;;;;;;;3.83;57.81;97425.38;5102517;28;20039;-74
2022/01/30 08:25:39;;;;;;;;;;;;;;;3.83;58.44;97454.41;5102247;28;20123;-74
2022/01/30 08:28:05;;;;;;;13.52;4.50;;;;;;;3.80;58.50;97482.06;5102046;28;20411;-73
2022/01/30 08:30:31;;;;;;;7.85;2.13;;;;;;;3.81;58.97;97464.72;5101246;28;20031;-74
2022/01/30 08:32:58;;;;;;;8.93;3.10;;;;;;;3.76;59.92;97459.28;5102305;28;20027;-74
2022/01/30 08:35:24;;;;;;;16.75;4.63;;;;;;;3.70;59.03;97464.72;5102497;28;20056;-70
2022/01/30 08:37:50;;;;;;;10.15;2.30;;;;;;;3.68;60.08;97477.75;5101991;28;20062;-71
2022/01/30 08:40:19;;;;;;;11.27;2.50;;;;;;;3.65;60.46;97461.25;5101625;28;20031;-76
2022/01/30 08:42:45;;;;;;;18.67;4.90;;;;;;;3.62;60.61;97454.47;5106105;28;20415;-74
2022/01/30 08:45:13;;;;;;;15.45;4.22;;;;;;;3.60;60.75;97464.78;5087068;28;20277;-75
2022/01/30 08:47:41;;;;;;;8.55;2.63;;;;;;;3.63;60.36;97476.97;5105549;28;20028;-75
2022/01/30 08:50:07;;;;;;;8.52;2.97;;;;;;;3.57;60.70;97514.94;5105056;28;20059;-74
2022/01/30 08:52:33;;;;;;;6.22;2.50;;;;;;;3.56;60.45;97466.41;5105505;28;20395;-76
2022/01/30 08:54:58;;;;;;;6.15;2.28;;;;;;;3.57;61.02;97466.13;5106745;27;20490;-76
2022/01/30 08:57:23;;;;;;;7.30;2.92;;;;;;;3.59;61.68;97463.16;5105693;28;20034;-75
2022/01/30 08:59:50;;;;;;;7.15;1.85;;;;;;;3.52;62.49;97465.34;5105017;28;20358;-77
2022/01/30 09:02:16;;;;;;;6.80;1.85;;;;;;;3.43;63.37;97474.03;5105837;28;20518;-79
2022/01/30 09:04:41;;;;;;;5.63;1.77;;;;;;;3.39;63.94;97443.13;5105721;28;20027;-81
2022/01/30 09:07:07;;;;;;;3.42;1.52;;;;;;;3.37;64.18;97463.47;5104687;28;20032;-81
2022/01/30 09:09:32;;;;;;;5.68;1.58;;;;;;;3.35;64.59;97469.16;5104583;28;20024;-80
2022/01/30 09:11:58;;;;;;;9.40;2.97;;;;;;;3.33;64.90;97444.22;5105632;28;20032;-81
2022/01/30 09:14:27;;;;;;;4.97;1.50;;;;;;;3.34;64.67;97450.47;5087183;28;20034;-81
2022/01/30 09:16:52;;;;;;;10.70;3.28;;;;;;;3.33;64.91;97444.22;5104263;28;20027;-80
2022/01/30 09:19:18;;;;;;;7.10;2.20;;;;;;;3.32;64.04;97479.75;5106924;27;20042;-81
2022/01/30 09:21:44;;;;;;;6.18;2.00;;;;;;;3.37;63.25;97444.50;5104584;28;20032;-81
2022/01/30 09:24:09;;;;;;;6.68;2.10;;;;;;;3.42;63.12;97460.75;5105401;28;20391;-81
2022/01/30 09:26:35;;;;;;;8.10;3.00;;;;;;;3.48;61.81;97469.69;5105566;28;20020;-81
2022/01/30 09:29:00;;;;;;;5.95;1.75;;;;;;;3.57;61.50;97457.19;5104801;28;20494;-81
2022/01/30 09:31:26;;;;;;;9.38;3.47;;;;;;;3.58;62.18;97467.75;5104311;28;20032;-81
2022/01/30 09:33:52;;;;;;;5.68;2.05;;;;;;;3.65;60.67;97440.38;5105584;28;20039;-82
2022/01/30 09:36:18;;;;;;;6.60;1.90;;;;;;;3.72;60.56;97440.88;5105122;28;20032;-81
2022/01/30 09:38:43;;;;;;;8.07;2.38;;;;;;;3.74;60.84;97448.75;5104371;28;20039;-83
2022/01/30 09:41:09;;;;;;;5.28;1.75;;;;;;;3.79;59.89;97465.00;5104425;28;20040;-83
2022/01/30 09:43:35;;;;;;;9.23;1.65;;;;;;;3.77;60.80;97469.88;5104549;28;20188;-83
2022/01/30 09:46:02;;;;;;;14.68;4.30;;;;;;;3.80;60.25;97479.34;5085717;28;20024;-81
2022/01/30 09:48:31;;;;;;;5.88;1.90;;;;;;;3.82;59.64;97469.88;5103726;28;20352;-78
2022/01/30 09:50:58;;;;;;;6.33;1.53;;;;;;;3.80;59.25;97447.63;5101804;28;20060;-83
2022/01/30 09:53:23;;;;;;;7.00;1.75;;;;;;;3.83;59.65;97452.50;5103981;28;20034;-80
2022/01/30 09:55:49;;;;;;;5.32;1.77;;;;;;;3.84;59.64;97456.84;5086122;28;20031;-81
2022/01/30 09:58:14;;;;;;;6.22;1.35;;;;;;;3.85;59.65;97457.66;5103739;28;20443;-81
2022/01/30 10:00:40;;;;;;;6.95;2.85;;;;;;;3.84;60.20;97456.03;5102546;28;20488;-80
2022/01/30 10:03:05;;;;;;;4.88;1.88;;;;;;;3.86;59.89;97448.41;5104472;28;20069;-84
2022/01/30 10:05:34;;;;;;;8.18;1.95;;;;;;;3.82;59.73;97447.34;5104643;28;20038;-82
2022/01/30 10:08:01;;;;;;;5.97;1.80;;;;;;;3.81;59.61;97468.25;5082621;28;20047;-84
2022/01/30 10:10:29;;;;;;;7.25;1.90;;;;;;;3.82;60.10;97459.03;5103045;28;20726;-82
2022/01/30 10:13:15;;;;;;;3.70;1.52;;;;;;;3.83;59.72;97471.50;5104927;28;20123;-82
2022/01/30 10:15:56;;;;;;;4.18;1.30;;;;;;;3.84;59.67;97453.31;5103545;28;20122;-84
2022/01/30 10:18:22;;;;;;;3.30;1.45;;;;;;;3.87;59.46;97471.75;5104684;27;20035;-83
2022/01/30 10:20:47;;;;;;;6.35;2.00;;;;;;;3.78;60.58;97455.25;5083364;28;20026;-83
2022/01/30 10:23:13;;;;;;;2.75;1.13;;;;;;;3.73;61.06;97466.09;5103732;28;20483;-84
2022/01/30 10:25:51;;;;;;;6.57;1.40;;;;;;;3.71;61.24;97444.66;5103107;28;20134;-80
2022/01/30 10:28:19;;;;;;;3.80;1.02;;;;;;;3.69;60.70;97446.03;5103156;28;20028;-79
2022/01/30 10:30:55;;;;;;;5.05;1.67;;;;;;;3.69;61.79;97451.47;5103525;28;20027;-80
2022/01/30 10:33:38;;;;;;;6.43;2.13;;;;;;;3.71;61.31;97460.13;5103859;28;20112;-81
2022/01/30 10:36:04;;;;;;;6.05;1.42;;;;;;;3.80;60.96;97439.50;5103575;28;20188;-79
2022/01/30 10:38:35;;;;;;;6.15;1.55;;;;;;;3.83;61.17;97447.09;5084898;28;20030;-78
2022/01/30 10:41:14;;;;;;;5.32;1.80;;;;;;;3.86;61.13;97443.81;5101477;28;20067;-79
2022/01/30 10:43:57;;;;;;;4.88;1.40;;;;;;;3.91;60.23;97442.16;5100705;27;20517;-81
2022/01/30 10:46:29;;;;;;;22.38;6.43;;;;;;;3.90;60.28;97435.94;5104371;28;20054;-83
2022/01/30 10:48:58;;;;;;;4.88;1.35;;;;;;;3.95;60.39;97448.66;5104158;28;20019;-80
2022/01/30 10:51:29;;;;;;;4.57;1.70;;;;;;;3.97;60.40;97462.75;5085183;28;20027;-80
2022/01/30 10:53:57;;;;;;;5.65;2.47;;;;;;;3.99;60.17;97463.28;5104364;28;20028;-77
2022/01/30 10:56:28;;;;;;;4.15;1.30;;;;;;;3.97;60.26;97455.44;5085433;28;20037;-78
2022/01/30 10:59:23;;;;;;;8.02;1.80;;;;;;;3.96;60.95;97477.41;5104022;28;20489;-77
2022/01/30 11:01:51;;;;;;;8.00;2.90;;;;;;;3.88;61.39;97449.75;5093500;28;20047;-78
2022/01/30 11:04:31;;;;;;;5.78;1.50;;;;;;;3.86;60.82;97445.72;5104014;28;20084;-77
2022/01/30 11:06:59;;;;;;;7.60;2.63;;;;;;;3.89;61.19;97447.88;5104152;28;20024;-79
2022/01/30 11:09:43;;;;;;;11.57;5.53;;;;;;;3.88;61.07;97470.66;5104147;28;20044;-76
2022/01/30 11:12:18;;;;;;;10.68;3.25;;;;;;;3.87;60.76;97464.41;5085325;28;20432;-78
2022/01/30 11:17:18;;;;;;;13.98;4.32;;;;;;;3.91;61.44;97453.00;5104566;27;20035;-77
2022/01/30 11:19:47;;;;;;;9.27;3.08;;;;;;;3.94;60.43;97464.13;5102809;28;20243;-78
2022/01/30 11:22:21;;;;;;;7.03;2.72;;;;;;;3.98;60.15;97469.81;5103782;28;20035;-78
2022/01/30 11:24:54;;;;;;;7.95;2.60;;;;;;;4.00;60.14;97468.44;5103231;28;20036;-78
2022/01/30 11:27:22;;;;;;;8.40;2.10;;;;;;;4.04;58.92;97484.19;5103195;28;20035;-78
2022/01/30 11:29:48;;;;;;;8.77;2.17;;;;;;;4.07;59.04;97505.34;5080870;28;20028;-79
2022/01/30 11:32:15;;;;;;;8.13;2.22;;;;;;;4.04;59.49;97500.47;5102598;28;20062;-76
2022/01/30 11:34:42;;;;;;;6.82;1.88;;;;;;;3.92;60.35;97500.75;5103035;28;20919;-78
2022/01/30 11:37:09;;;;;;;8.23;2.50;;;;;;;3.83;61.75;97554.75;5102951;28;20015;-78
2022/01/30 11:39:37;;;;;;;6.57;1.60;;;;;;;3.78;61.92;97514.91;5101467;28;20088;-78
2022/01/30 11:42:13;;;;;;;7.72;2.58;;;;;;;3.67;62.49;97508.66;5101477;28;20036;-78
2022/01/30 11:44:46;;;;;;;4.10;1.48;;;;;;;3.54;64.02;97528.25;5101024;28;20478;-78
2022/01/30 11:47:12;;;;;;;8.32;2.50;;;;;;;3.41;65.23;97516.84;5103388;28;20063;-80
2022/01/30 11:49:43;;;;;;;13.63;2.90;;;;;;;3.31;65.50;97526.91;5097268;28;20518;-77
2022/01/30 11:52:11;;;;;;;9.70;2.28;;;;;;;3.24;66.97;97509.00;5103080;28;20032;-76
2022/01/30 11:54:41;;;;;;;12.90;2.80;;;;;;;3.24;66.86;97516.34;5084288;28;20069;-77
2022/01/30 11:57:21;;;;;;;;;;;;;;;3.27;65.48;97508.47;5103830;28;20020;-76
2022/01/30 11:59:51;;;;;;;9.75;1.80;;;;;;;3.31;65.95;97513.34;5101438;28;20446;-76
2022/01/30 12:02:21;;;;;;;;;;;;;;;3.30;65.70;97523.34;5082465;28;20116;-77
2022/01/30 12:05:02;;;;;;;10.10;2.53;;;;;;;3.33;65.46;97532.88;5084334;28;19927;-76
2022/01/30 12:07:34;;;;;;;8.45;2.53;;;;;;;3.35;65.44;97509.81;5081724;28;20031;-76
2022/01/30 12:10:25;;;;;;;9.32;2.10;;;;;;;3.33;65.24;97509.28;5100510;28;20118;-76
2022/01/30 12:12:52;;;;;;;8.18;3.00;;;;;;;3.37;64.83;97501.41;5100387;28;21552;-76
2022/01/30 12:15:38;;;;;;;7.93;2.75;;;;;;;3.46;64.36;97542.34;5103476;28;20084;-76
2022/01/30 12:18:07;;;;;;;10.77;3.33;;;;;;;3.50;63.88;97510.88;5088041;28;20425;-76
2022/01/30 12:21:00;;;;;;;5.47;1.67;;;;;;;3.53;63.59;97529.31;5105316;28;20056;-76
2022/01/30 12:23:31;;;;;;;12.75;3.38;;;;;;;3.54;63.53;97515.47;5107052;28;20545;-76
2022/01/30 12:26:05;;;;;;;8.60;2.65;;;;;;;3.57;64.41;97500.59;5105141;28;20034;-76
2022/01/30 12:28:49;;;;;;;12.38;2.83;;;;;;;3.54;64.76;97501.13;5106003;28;20086;-75
2022/01/30 12:31:24;;;;;;;12.02;3.33;;;;;;;3.53;64.43;97513.84;5083837;28;20573;-75
2022/01/30 12:34:00;;;;;;;9.55;2.28;;;;;;;3.52;64.57;97493.25;5108069;28;20052;-75
2022/01/30 12:36:26;;;;;;;10.35;2.65;;;;;;;3.53;64.62;97519.28;5106786;28;20038;-76
2022/01/30 12:39:02;;;;;;;18.45;6.05;;;;;;;3.57;64.58;97509.50;5106497;28;20036;-75
2022/01/30 12:41:29;;;;;;;11.15;3.97;;;;;;;3.60;65.18;97508.16;5105449;28;20403;-76
2022/01/30 12:43:57;;;;;;;12.30;3.15;;;;;;;3.62;65.51;97499.75;5106465;28;20556;-75
2022/01/30 12:46:29;;;;;;;10.50;3.75;;;;;;;3.61;65.62;97515.22;5106403;28;20042;-75
2022/01/30 12:49:04;;;;;;;9.15;2.75;;;;;;;3.56;67.05;97526.06;5087811;28;20392;-79
2022/01/30 12:51:30;;;;;;;8.55;1.88;;;;;;;3.57;66.84;97517.66;5105231;28;20435;-78